sensor_id;sensor_type;location;lat;lon;timestamp;P1;durP1;ratioP1;P2;durP2;ratioP2
305;SDS011;137;48.578;9.180;2024-01-15T00:01:21;17.53;;;9.47;;
305;SDS011;137;48.578;9.180;2024-01-15T00:03:48;13.13;;;7.63;;
305;SDS011;137;48.578;9.180;2024-01-15T00:06:15;10.70;;;6.77;;
305;SDS011;137;48.578;9.180;2024-01-15T00:08:41;11.47;;;7.40;;
305;SDS011;137;48.578;9.180;2024-01-15T00:11:08;15.30;;;9.50;;
305;SDS011;137;48.578;9.180;2024-01-15T00:13:35;13.17;;;8.50;;
305;SDS011;137;48.578;9.180;2024-01-15T00:16:03;12.50;;;8.40;;
305;SDS011;137;48.578;9.180;2024-01-15T00:18:30;14.30;;;6.83;;
305;SDS011;137;48.578;9.180;2024-01-15T00:20:57;14.80;;;7.93;;
305;SDS011;137;48.578;9.180;2024-01-15T00:23:24;13.77;;;6.77;;
305;SDS011;137;48.578;9.180;2024-01-15T00:25:50;15.50;;;8.00;;
305;SDS011;137;48.578;9.180;2024-01-15T00:28:17;14.70;;;7.77;;
305;SDS011;137;48.578;9.180;2024-01-15T00:30:44;13.07;;;8.60;;
305;SDS011;137;48.578;9.180;2024-01-15T00:33:12;15.87;;;8.60;;
305;SDS011;137;48.578;9.180;2024-01-15T00:35:39;13.00;;;7.07;;
305;SDS011;137;48.578;9.180;2024-01-15T00:38:06;12.57;;;9.30;;
305;SDS011;137;48.578;9.180;2024-01-15T00:40:33;10.47;;;7.97;;
305;SDS011;137;48.578;9.180;2024-01-15T00:43:00;12.47;;;7.73;;
305;SDS011;137;48.578;9.180;2024-01-15T00:45:27;12.97;;;8.73;;
305;SDS011;137;48.578;9.180;2024-01-15T00:47:54;10.70;;;6.67;;
305;SDS011;137;48.578;9.180;2024-01-15T00:50:22;12.87;;;6.67;;
305;SDS011;137;48.578;9.180;2024-01-15T00:52:49;12.50;;;7.73;;
305;SDS011;137;48.578;9.180;2024-01-15T00:55:16;12.07;;;7.00;;
305;SDS011;137;48.578;9.180;2024-01-15T00:57:43;13.97;;;9.40;;
305;SDS011;137;48.578;9.180;2024-01-15T01:00:10;15.80;;;8.23;;
305;SDS011;137;48.578;9.180;2024-01-15T01:02:37;13.90;;;9.70;;
305;SDS011;137;48.578;9.180;2024-01-15T01:05:04;12.83;;;8.63;;
305;SDS011;137;48.578;9.180;2024-01-15T01:07:32;12.63;;;8.33;;
305;SDS011;137;48.578;9.180;2024-01-15T01:09:59;21.77;;;9.50;;
305;SDS011;137;48.578;9.180;2024-01-15T01:12:26;13.37;;;8.37;;
305;SDS011;137;48.578;9.180;2024-01-15T01:14:52;13.93;;;6.90;;
305;SDS011;137;48.578;9.180;2024-01-15T01:17:19;14.13;;;8.77;;
305;SDS011;137;48.578;9.180;2024-01-15T01:19:46;14.50;;;8.63;;
305;SDS011;137;48.578;9.180;2024-01-15T01:22:12;13.43;;;7.73;;
305;SDS011;137;48.578;9.180;2024-01-15T01:24:41;16.20;;;7.93;;
305;SDS011;137;48.578;9.180;2024-01-15T01:27:07;12.80;;;7.27;;
305;SDS011;137;48.578;9.180;2024-01-15T01:29:34;12.90;;;6.60;;
305;SDS011;137;48.578;9.180;2024-01-15T01:32:01;13.87;;;8.37;;
305;SDS011;137;48.578;9.180;2024-01-15T01:34:28;12.70;;;7.57;;
305;SDS011;137;48.578;9.180;2024-01-15T01:36:55;13.60;;;7.57;;
305;SDS011;137;48.578;9.180;2024-01-15T01:39:22;14.33;;;6.60;;
305;SDS011;137;48.578;9.180;2024-01-15T01:41:50;13.00;;;7.77;;
305;SDS011;137;48.578;9.180;2024-01-15T01:44:16;12.57;;;8.23;;
305;SDS011;137;48.578;9.180;2024-01-15T01:46:43;10.57;;;7.20;;
305;SDS011;137;48.578;9.180;2024-01-15T01:49:10;11.00;;;7.13;;
305;SDS011;137;48.578;9.180;2024-01-15T01:51:37;13.43;;;7.53;;
305;SDS011;137;48.578;9.180;2024-01-15T01:54:04;13.30;;;7.57;;
305;SDS011;137;48.578;9.180;2024-01-15T01:56:33;12.10;;;7.97;;
305;SDS011;137;48.578;9.180;2024-01-15T01:59:01;13.20;;;7.60;;
305;SDS011;137;48.578;9.180;2024-01-15T02:01:30;16.73;;;7.03;;
305;SDS011;137;48.578;9.180;2024-01-15T02:03:57;15.90;;;8.47;;
305;SDS011;137;48.578;9.180;2024-01-15T02:06:24;10.23;;;6.23;;
305;SDS011;137;48.578;9.180;2024-01-15T02:08:50;13.50;;;7.03;;
305;SDS011;137;48.578;9.180;2024-01-15T02:11:18;17.50;;;8.40;;
305;SDS011;137;48.578;9.180;2024-01-15T02:13:45;12.67;;;7.47;;
305;SDS011;137;48.578;9.180;2024-01-15T02:16:13;15.17;;;8.77;;
305;SDS011;137;48.578;9.180;2024-01-15T02:18:40;11.57;;;7.17;;
305;SDS011;137;48.578;9.180;2024-01-15T02:21:07;16.30;;;9.53;;
305;SDS011;137;48.578;9.180;2024-01-15T02:23:35;10.80;;;6.70;;
305;SDS011;137;48.578;9.180;2024-01-15T02:26:02;14.70;;;7.00;;
305;SDS011;137;48.578;9.180;2024-01-15T02:28:30;12.03;;;7.53;;
305;SDS011;137;48.578;9.180;2024-01-15T02:30:58;15.13;;;8.73;;
305;SDS011;137;48.578;9.180;2024-01-15T02:33:25;11.93;;;6.90;;
305;SDS011;137;48.578;9.180;2024-01-15T02:35:52;11.77;;;6.90;;
305;SDS011;137;48.578;9.180;2024-01-15T02:38:19;11.23;;;7.00;;
305;SDS011;137;48.578;9.180;2024-01-15T02:40:47;8.67;;;5.27;;
305;SDS011;137;48.578;9.180;2024-01-15T02:43:13;11.33;;;7.23;;
305;SDS011;137;48.578;9.180;2024-01-15T02:45:40;11.83;;;7.03;;
305;SDS011;137;48.578;9.180;2024-01-15T02:48:07;11.10;;;7.10;;
305;SDS011;137;48.578;9.180;2024-01-15T02:50:33;11.50;;;6.63;;
305;SDS011;137;48.578;9.180;2024-01-15T02:53:00;14.50;;;7.77;;
305;SDS011;137;48.578;9.180;2024-01-15T02:55:27;11.70;;;6.97;;
305;SDS011;137;48.578;9.180;2024-01-15T02:57:56;11.67;;;6.43;;
305;SDS011;137;48.578;9.180;2024-01-15T03:00:23;12.80;;;7.40;;
305;SDS011;137;48.578;9.180;2024-01-15T03:02:50;11.30;;;6.70;;
305;SDS011;137;48.578;9.180;2024-01-15T03:05:17;11.17;;;6.77;;
305;SDS011;137;48.578;9.180;2024-01-15T03:07:45;11.97;;;6.43;;
305;SDS011;137;48.578;9.180;2024-01-15T03:10:11;14.70;;;7.10;;
305;SDS011;137;48.578;9.180;2024-01-15T03:12:38;16.47;;;7.40;;
305;SDS011;137;48.578;9.180;2024-01-15T03:15:07;12.30;;;8.07;;
305;SDS011;137;48.578;9.180;2024-01-15T03:17:34;12.17;;;6.87;;
305;SDS011;137;48.578;9.180;2024-01-15T03:20:00;11.27;;;7.70;;
305;SDS011;137;48.578;9.180;2024-01-15T03:22:28;10.70;;;5.37;;
305;SDS011;137;48.578;9.180;2024-01-15T03:24:54;13.20;;;7.83;;
305;SDS011;137;48.578;9.180;2024-01-15T03:27:21;7.30;;;5.60;;
305;SDS011;137;48.578;9.180;2024-01-15T03:29:48;12.60;;;7.03;;
305;SDS011;137;48.578;9.180;2024-01-15T03:32:16;9.27;;;6.20;;
305;SDS011;137;48.578;9.180;2024-01-15T03:34:44;12.40;;;6.80;;
305;SDS011;137;48.578;9.180;2024-01-15T03:37:12;9.90;;;5.30;;
305;SDS011;137;48.578;9.180;2024-01-15T03:39:39;14.70;;;6.50;;
305;SDS011;137;48.578;9.180;2024-01-15T03:42:06;10.97;;;6.33;;
305;SDS011;137;48.578;9.180;2024-01-15T03:44:32;10.60;;;5.97;;
305;SDS011;137;48.578;9.180;2024-01-15T03:46:59;14.93;;;7.13;;
305;SDS011;137;48.578;9.180;2024-01-15T03:49:27;15.97;;;7.30;;
305;SDS011;137;48.578;9.180;2024-01-15T03:51:54;13.37;;;7.40;;
305;SDS011;137;48.578;9.180;2024-01-15T03:54:21;12.63;;;6.43;;
305;SDS011;137;48.578;9.180;2024-01-15T03:56:48;15.83;;;8.17;;
305;SDS011;137;48.578;9.180;2024-01-15T03:59:14;11.77;;;7.17;;
305;SDS011;137;48.578;9.180;2024-01-15T04:01:41;11.73;;;6.20;;
305;SDS011;137;48.578;9.180;2024-01-15T04:04:14;12.80;;;8.33;;
305;SDS011;137;48.578;9.180;2024-01-15T04:06:42;11.13;;;6.77;;
305;SDS011;137;48.578;9.180;2024-01-15T04:09:09;16.03;;;7.73;;
305;SDS011;137;48.578;9.180;2024-01-15T04:11:36;14.90;;;6.73;;
305;SDS011;137;48.578;9.180;2024-01-15T04:14:02;13.07;;;7.40;;
305;SDS011;137;48.578;9.180;2024-01-15T04:16:29;16.60;;;8.20;;
305;SDS011;137;48.578;9.180;2024-01-15T04:18:56;10.93;;;5.77;;
305;SDS011;137;48.578;9.180;2024-01-15T04:21:23;11.80;;;6.70;;
305;SDS011;137;48.578;9.180;2024-01-15T04:23:51;14.90;;;7.20;;
305;SDS011;137;48.578;9.180;2024-01-15T04:26:18;11.67;;;7.00;;
305;SDS011;137;48.578;9.180;2024-01-15T04:28:44;16.03;;;6.87;;
305;SDS011;137;48.578;9.180;2024-01-15T04:31:20;12.53;;;8.30;;
305;SDS011;137;48.578;9.180;2024-01-15T04:33:47;13.27;;;7.67;;
305;SDS011;137;48.578;9.180;2024-01-15T04:36:14;16.13;;;8.43;;
305;SDS011;137;48.578;9.180;2024-01-15T04:38:40;13.23;;;6.90;;
305;SDS011;137;48.578;9.180;2024-01-15T04:41:10;13.37;;;8.23;;
305;SDS011;137;48.578;9.180;2024-01-15T04:43:38;12.07;;;6.80;;
305;SDS011;137;48.578;9.180;2024-01-15T04:46:05;15.47;;;7.50;;
305;SDS011;137;48.578;9.180;2024-01-15T04:48:32;16.27;;;7.67;;
305;SDS011;137;48.578;9.180;2024-01-15T04:50:58;15.57;;;8.50;;
305;SDS011;137;48.578;9.180;2024-01-15T04:53:24;12.37;;;7.20;;
305;SDS011;137;48.578;9.180;2024-01-15T04:55:51;13.07;;;8.00;;
305;SDS011;137;48.578;9.180;2024-01-15T04:58:18;15.00;;;7.20;;
305;SDS011;137;48.578;9.180;2024-01-15T05:00:45;14.90;;;8.83;;
305;SDS011;137;48.578;9.180;2024-01-15T05:03:12;16.03;;;8.40;;
305;SDS011;137;48.578;9.180;2024-01-15T05:05:39;12.30;;;6.33;;
305;SDS011;137;48.578;9.180;2024-01-15T05:08:05;11.70;;;6.70;;
305;SDS011;137;48.578;9.180;2024-01-15T05:10:32;13.73;;;9.43;;
305;SDS011;137;48.578;9.180;2024-01-15T05:12:59;12.03;;;7.57;;
305;SDS011;137;48.578;9.180;2024-01-15T05:15:27;13.97;;;8.53;;
305;SDS011;137;48.578;9.180;2024-01-15T05:17:54;13.83;;;7.53;;
305;SDS011;137;48.578;9.180;2024-01-15T05:20:21;12.70;;;8.13;;
305;SDS011;137;48.578;9.180;2024-01-15T05:22:48;20.33;;;8.60;;
305;SDS011;137;48.578;9.180;2024-01-15T05:25:15;15.20;;;8.23;;
305;SDS011;137;48.578;9.180;2024-01-15T05:27:41;14.03;;;7.87;;
305;SDS011;137;48.578;9.180;2024-01-15T05:30:08;12.70;;;7.13;;
305;SDS011;137;48.578;9.180;2024-01-15T05:32:37;13.60;;;8.07;;
305;SDS011;137;48.578;9.180;2024-01-15T05:35:04;17.30;;;9.10;;
305;SDS011;137;48.578;9.180;2024-01-15T05:39:56;14.30;;;9.27;;
305;SDS011;137;48.578;9.180;2024-01-15T05:42:23;13.17;;;7.73;;
305;SDS011;137;48.578;9.180;2024-01-15T05:44:50;11.83;;;7.27;;
305;SDS011;137;48.578;9.180;2024-01-15T05:47:17;12.60;;;8.80;;
305;SDS011;137;48.578;9.180;2024-01-15T05:49:45;13.00;;;8.70;;
305;SDS011;137;48.578;9.180;2024-01-15T05:52:11;13.83;;;8.07;;
305;SDS011;137;48.578;9.180;2024-01-15T05:54:38;11.47;;;8.37;;
305;SDS011;137;48.578;9.180;2024-01-15T05:57:05;16.43;;;9.43;;
305;SDS011;137;48.578;9.180;2024-01-15T05:59:31;12.83;;;7.60;;
305;SDS011;137;48.578;9.180;2024-01-15T06:02:01;14.13;;;8.80;;
305;SDS011;137;48.578;9.180;2024-01-15T06:04:27;15.67;;;8.83;;
305;SDS011;137;48.578;9.180;2024-01-15T06:06:55;12.60;;;8.23;;
305;SDS011;137;48.578;9.180;2024-01-15T06:09:23;12.37;;;8.50;;
305;SDS011;137;48.578;9.180;2024-01-15T06:11:49;9.20;;;5.80;;
305;SDS011;137;48.578;9.180;2024-01-15T06:14:16;9.57;;;7.10;;
305;SDS011;137;48.578;9.180;2024-01-15T06:16:43;11.13;;;8.27;;
305;SDS011;137;48.578;9.180;2024-01-15T06:19:10;10.73;;;6.83;;
305;SDS011;137;48.578;9.180;2024-01-15T06:21:36;13.30;;;8.70;;
305;SDS011;137;48.578;9.180;2024-01-15T06:24:05;11.13;;;8.03;;
305;SDS011;137;48.578;9.180;2024-01-15T06:26:32;12.30;;;7.07;;
305;SDS011;137;48.578;9.180;2024-01-15T06:28:58;10.53;;;8.13;;
305;SDS011;137;48.578;9.180;2024-01-15T06:31:25;11.43;;;8.03;;
305;SDS011;137;48.578;9.180;2024-01-15T06:33:52;12.90;;;7.40;;
305;SDS011;137;48.578;9.180;2024-01-15T06:36:19;14.40;;;8.10;;
305;SDS011;137;48.578;9.180;2024-01-15T06:38:45;13.48;;;8.75;;
305;SDS011;137;48.578;9.180;2024-01-15T06:41:13;15.57;;;11.20;;
305;SDS011;137;48.578;9.180;2024-01-15T06:43:40;12.23;;;7.63;;
305;SDS011;137;48.578;9.180;2024-01-15T06:46:07;13.57;;;10.40;;
305;SDS011;137;48.578;9.180;2024-01-15T06:48:34;13.83;;;8.60;;
305;SDS011;137;48.578;9.180;2024-01-15T06:51:00;18.00;;;9.60;;
305;SDS011;137;48.578;9.180;2024-01-15T06:53:27;12.77;;;7.40;;
305;SDS011;137;48.578;9.180;2024-01-15T06:55:54;8.23;;;6.00;;
305;SDS011;137;48.578;9.180;2024-01-15T06:58:22;10.70;;;6.60;;
305;SDS011;137;48.578;9.180;2024-01-15T07:00:49;12.63;;;8.37;;
305;SDS011;137;48.578;9.180;2024-01-15T07:03:16;12.83;;;7.53;;
305;SDS011;137;48.578;9.180;2024-01-15T07:05:42;10.70;;;6.73;;
305;SDS011;137;48.578;9.180;2024-01-15T07:08:09;10.70;;;7.23;;
305;SDS011;137;48.578;9.180;2024-01-15T07:10:36;9.93;;;6.33;;
305;SDS011;137;48.578;9.180;2024-01-15T07:13:02;10.50;;;7.47;;
305;SDS011;137;48.578;9.180;2024-01-15T07:15:31;13.10;;;8.10;;
305;SDS011;137;48.578;9.180;2024-01-15T07:17:58;10.00;;;6.37;;
305;SDS011;137;48.578;9.180;2024-01-15T07:20:25;12.30;;;8.63;;
305;SDS011;137;48.578;9.180;2024-01-15T07:22:52;11.17;;;6.90;;
305;SDS011;137;48.578;9.180;2024-01-15T07:25:18;13.20;;;8.43;;
305;SDS011;137;48.578;9.180;2024-01-15T07:27:45;14.77;;;8.17;;
305;SDS011;137;48.578;9.180;2024-01-15T07:30:12;11.10;;;6.20;;
305;SDS011;137;48.578;9.180;2024-01-15T07:32:41;11.57;;;7.37;;
305;SDS011;137;48.578;9.180;2024-01-15T07:35:08;11.37;;;8.40;;
305;SDS011;137;48.578;9.180;2024-01-15T07:40:02;10.00;;;6.70;;
305;SDS011;137;48.578;9.180;2024-01-15T07:42:31;9.80;;;6.00;;
305;SDS011;137;48.578;9.180;2024-01-15T07:44:59;10.77;;;6.27;;
305;SDS011;137;48.578;9.180;2024-01-15T07:47:26;12.17;;;6.70;;
305;SDS011;137;48.578;9.180;2024-01-15T07:49:54;10.83;;;7.20;;
305;SDS011;137;48.578;9.180;2024-01-15T07:52:21;8.33;;;5.70;;
305;SDS011;137;48.578;9.180;2024-01-15T07:54:48;12.57;;;7.00;;
305;SDS011;137;48.578;9.180;2024-01-15T07:57:15;11.30;;;5.57;;
305;SDS011;137;48.578;9.180;2024-01-15T07:59:42;8.13;;;5.70;;
305;SDS011;137;48.578;9.180;2024-01-15T08:02:08;7.77;;;5.47;;
305;SDS011;137;48.578;9.180;2024-01-15T08:04:36;8.07;;;5.33;;
305;SDS011;137;48.578;9.180;2024-01-15T08:07:04;9.13;;;5.47;;
305;SDS011;137;48.578;9.180;2024-01-15T08:09:32;5.80;;;4.73;;
305;SDS011;137;48.578;9.180;2024-01-15T08:11:58;11.60;;;6.03;;
305;SDS011;137;48.578;9.180;2024-01-15T08:14:25;11.00;;;6.03;;
305;SDS011;137;48.578;9.180;2024-01-15T08:16:52;7.97;;;5.90;;
305;SDS011;137;48.578;9.180;2024-01-15T08:19:19;7.20;;;4.87;;
305;SDS011;137;48.578;9.180;2024-01-15T08:21:46;8.03;;;6.03;;
305;SDS011;137;48.578;9.180;2024-01-15T08:24:14;10.33;;;4.77;;
305;SDS011;137;48.578;9.180;2024-01-15T08:26:41;7.43;;;4.80;;
305;SDS011;137;48.578;9.180;2024-01-15T08:29:08;9.53;;;5.97;;
305;SDS011;137;48.578;9.180;2024-01-15T08:31:35;9.90;;;6.50;;
305;SDS011;137;48.578;9.180;2024-01-15T08:34:02;7.37;;;4.70;;
305;SDS011;137;48.578;9.180;2024-01-15T08:36:29;9.00;;;5.40;;
305;SDS011;137;48.578;9.180;2024-01-15T08:38:56;8.60;;;5.07;;
305;SDS011;137;48.578;9.180;2024-01-15T08:41:24;6.20;;;4.10;;
305;SDS011;137;48.578;9.180;2024-01-15T08:43:51;8.00;;;3.60;;
305;SDS011;137;48.578;9.180;2024-01-15T08:46:18;9.70;;;5.30;;
305;SDS011;137;48.578;9.180;2024-01-15T08:48:45;5.60;;;3.57;;
305;SDS011;137;48.578;9.180;2024-01-15T08:51:12;7.47;;;4.73;;
305;SDS011;137;48.578;9.180;2024-01-15T08:53:39;8.50;;;3.93;;
305;SDS011;137;48.578;9.180;2024-01-15T08:56:05;7.40;;;4.10;;
305;SDS011;137;48.578;9.180;2024-01-15T08:58:34;8.03;;;5.47;;
305;SDS011;137;48.578;9.180;2024-01-15T09:01:01;6.90;;;3.33;;
305;SDS011;137;48.578;9.180;2024-01-15T09:03:28;4.80;;;2.93;;
305;SDS011;137;48.578;9.180;2024-01-15T09:05:55;6.43;;;3.63;;
305;SDS011;137;48.578;9.180;2024-01-15T09:08:21;4.53;;;2.80;;
305;SDS011;137;48.578;9.180;2024-01-15T09:10:48;6.40;;;3.60;;
305;SDS011;137;48.578;9.180;2024-01-15T09:13:15;5.77;;;3.30;;
305;SDS011;137;48.578;9.180;2024-01-15T09:15:43;6.10;;;4.03;;
305;SDS011;137;48.578;9.180;2024-01-15T09:18:10;5.37;;;3.70;;
305;SDS011;137;48.578;9.180;2024-01-15T09:20:36;4.53;;;2.60;;
305;SDS011;137;48.578;9.180;2024-01-15T09:23:03;3.30;;;2.87;;
305;SDS011;137;48.578;9.180;2024-01-15T09:25:30;6.37;;;3.40;;
305;SDS011;137;48.578;9.180;2024-01-15T09:27:57;5.40;;;3.97;;
305;SDS011;137;48.578;9.180;2024-01-15T09:30:24;6.10;;;3.67;;
305;SDS011;137;48.578;9.180;2024-01-15T09:32:52;6.87;;;4.30;;
305;SDS011;137;48.578;9.180;2024-01-15T09:35:19;2.90;;;2.37;;
305;SDS011;137;48.578;9.180;2024-01-15T09:37:45;4.60;;;3.20;;
305;SDS011;137;48.578;9.180;2024-01-15T09:40:12;4.90;;;2.30;;
305;SDS011;137;48.578;9.180;2024-01-15T09:42:40;5.13;;;2.80;;
305;SDS011;137;48.578;9.180;2024-01-15T09:45:07;6.30;;;3.77;;
305;SDS011;137;48.578;9.180;2024-01-15T09:47:35;4.87;;;3.07;;
305;SDS011;137;48.578;9.180;2024-01-15T09:50:04;4.90;;;2.60;;
305;SDS011;137;48.578;9.180;2024-01-15T09:52:31;4.43;;;3.00;;
305;SDS011;137;48.578;9.180;2024-01-15T09:54:59;6.20;;;3.47;;
305;SDS011;137;48.578;9.180;2024-01-15T09:57:28;4.07;;;2.73;;
305;SDS011;137;48.578;9.180;2024-01-15T09:59:55;4.10;;;3.07;;
305;SDS011;137;48.578;9.180;2024-01-15T10:02:25;6.70;;;2.80;;
305;SDS011;137;48.578;9.180;2024-01-15T10:04:52;4.80;;;2.83;;
305;SDS011;137;48.578;9.180;2024-01-15T10:07:21;2.87;;;2.57;;
305;SDS011;137;48.578;9.180;2024-01-15T10:09:49;4.23;;;2.47;;
305;SDS011;137;48.578;9.180;2024-01-15T10:12:16;3.93;;;2.43;;
305;SDS011;137;48.578;9.180;2024-01-15T10:14:43;4.00;;;2.50;;
305;SDS011;137;48.578;9.180;2024-01-15T10:17:12;2.97;;;2.10;;
305;SDS011;137;48.578;9.180;2024-01-15T10:19:40;6.10;;;2.33;;
305;SDS011;137;48.578;9.180;2024-01-15T10:22:07;10.80;;;2.77;;
305;SDS011;137;48.578;9.180;2024-01-15T10:24:36;4.43;;;2.43;;
305;SDS011;137;48.578;9.180;2024-01-15T10:27:07;2.60;;;2.23;;
305;SDS011;137;48.578;9.180;2024-01-15T10:29:34;4.73;;;2.50;;
305;SDS011;137;48.578;9.180;2024-01-15T10:32:01;4.33;;;2.07;;
305;SDS011;137;48.578;9.180;2024-01-15T10:34:30;4.40;;;2.07;;
305;SDS011;137;48.578;9.180;2024-01-15T10:36:56;3.30;;;1.80;;
305;SDS011;137;48.578;9.180;2024-01-15T10:39:23;2.53;;;1.87;;
305;SDS011;137;48.578;9.180;2024-01-15T10:41:52;2.57;;;2.27;;
305;SDS011;137;48.578;9.180;2024-01-15T10:44:19;2.33;;;1.70;;
305;SDS011;137;48.578;9.180;2024-01-15T10:46:45;2.73;;;1.90;;
305;SDS011;137;48.578;9.180;2024-01-15T10:49:13;2.40;;;2.20;;
305;SDS011;137;48.578;9.180;2024-01-15T10:51:40;3.40;;;2.50;;
305;SDS011;137;48.578;9.180;2024-01-15T10:54:08;2.70;;;1.77;;
305;SDS011;137;48.578;9.180;2024-01-15T10:56:36;2.70;;;1.73;;
305;SDS011;137;48.578;9.180;2024-01-15T10:59:04;3.10;;;2.30;;
305;SDS011;137;48.578;9.180;2024-01-15T11:01:33;3.67;;;2.20;;
305;SDS011;137;48.578;9.180;2024-01-15T11:04:00;5.57;;;2.40;;
305;SDS011;137;48.578;9.180;2024-01-15T11:06:27;2.43;;;2.00;;
305;SDS011;137;48.578;9.180;2024-01-15T11:08:55;2.57;;;2.03;;
305;SDS011;137;48.578;9.180;2024-01-15T11:11:22;3.93;;;2.60;;
305;SDS011;137;48.578;9.180;2024-01-15T11:13:49;3.70;;;2.27;;
305;SDS011;137;48.578;9.180;2024-01-15T11:16:18;5.30;;;2.53;;
305;SDS011;137;48.578;9.180;2024-01-15T11:21:28;3.13;;;2.17;;
305;SDS011;137;48.578;9.180;2024-01-15T11:23:56;4.70;;;2.23;;
305;SDS011;137;48.578;9.180;2024-01-15T11:26:27;7.13;;;2.40;;
305;SDS011;137;48.578;9.180;2024-01-15T11:28:58;5.23;;;3.00;;
305;SDS011;137;48.578;9.180;2024-01-15T11:31:28;4.77;;;2.67;;
305;SDS011;137;48.578;9.180;2024-01-15T11:33:55;3.27;;;2.50;;
305;SDS011;137;48.578;9.180;2024-01-15T11:36:23;3.53;;;3.23;;
305;SDS011;137;48.578;9.180;2024-01-15T11:39:39;5.17;;;2.60;;
305;SDS011;137;48.578;9.180;2024-01-15T11:42:07;4.50;;;2.87;;
305;SDS011;137;48.578;9.180;2024-01-15T11:44:36;2.97;;;2.40;;
305;SDS011;137;48.578;9.180;2024-01-15T11:47:05;4.50;;;2.60;;
305;SDS011;137;48.578;9.180;2024-01-15T11:49:40;3.13;;;2.63;;
305;SDS011;137;48.578;9.180;2024-01-15T11:52:35;2.97;;;2.67;;
305;SDS011;137;48.578;9.180;2024-01-15T11:55:14;5.13;;;2.70;;
305;SDS011;137;48.578;9.180;2024-01-15T11:57:45;5.43;;;3.20;;
305;SDS011;137;48.578;9.180;2024-01-15T12:00:15;3.60;;;2.93;;
305;SDS011;137;48.578;9.180;2024-01-15T12:02:44;3.97;;;2.50;;
305;SDS011;137;48.578;9.180;2024-01-15T12:05:12;5.37;;;3.17;;
305;SDS011;137;48.578;9.180;2024-01-15T12:07:39;3.70;;;2.73;;
305;SDS011;137;48.578;9.180;2024-01-15T12:10:10;3.90;;;2.83;;
305;SDS011;137;48.578;9.180;2024-01-15T12:12:39;10.07;;;3.60;;
305;SDS011;137;48.578;9.180;2024-01-15T12:15:17;7.73;;;3.30;;
305;SDS011;137;48.578;9.180;2024-01-15T12:17:46;4.73;;;2.70;;
305;SDS011;137;48.578;9.180;2024-01-15T12:20:13;3.63;;;3.07;;
305;SDS011;137;48.578;9.180;2024-01-15T12:22:41;4.90;;;3.13;;
305;SDS011;137;48.578;9.180;2024-01-15T12:25:08;4.03;;;2.93;;
305;SDS011;137;48.578;9.180;2024-01-15T12:27:35;4.07;;;3.37;;
305;SDS011;137;48.578;9.180;2024-01-15T12:30:03;6.05;;;4.40;;
305;SDS011;137;48.578;9.180;2024-01-15T12:32:30;5.50;;;3.13;;
305;SDS011;137;48.578;9.180;2024-01-15T12:34:59;6.07;;;3.80;;
305;SDS011;137;48.578;9.180;2024-01-15T12:39:53;6.77;;;3.40;;
305;SDS011;137;48.578;9.180;2024-01-15T12:42:21;3.83;;;2.90;;
305;SDS011;137;48.578;9.180;2024-01-15T12:44:48;3.90;;;2.50;;
305;SDS011;137;48.578;9.180;2024-01-15T12:47:14;5.32;;;3.70;;
305;SDS011;137;48.578;9.180;2024-01-15T12:49:46;5.27;;;3.87;;
305;SDS011;137;48.578;9.180;2024-01-15T12:52:15;3.87;;;3.20;;
305;SDS011;137;48.578;9.180;2024-01-15T12:54:44;5.87;;;3.40;;
305;SDS011;137;48.578;9.180;2024-01-15T12:57:11;4.90;;;3.83;;
305;SDS011;137;48.578;9.180;2024-01-15T12:59:38;6.57;;;3.63;;
305;SDS011;137;48.578;9.180;2024-01-15T13:02:05;5.33;;;3.60;;
305;SDS011;137;48.578;9.180;2024-01-15T13:04:32;4.93;;;3.90;;
305;SDS011;137;48.578;9.180;2024-01-15T13:06:58;4.00;;;3.57;;
305;SDS011;137;48.578;9.180;2024-01-15T13:09:27;4.80;;;3.37;;
305;SDS011;137;48.578;9.180;2024-01-15T13:11:54;6.97;;;5.20;;
305;SDS011;137;48.578;9.180;2024-01-15T13:14:21;6.73;;;4.33;;
305;SDS011;137;48.578;9.180;2024-01-15T13:16:48;8.60;;;4.40;;
305;SDS011;137;48.578;9.180;2024-01-15T13:19:15;5.20;;;4.70;;
305;SDS011;137;48.578;9.180;2024-01-15T13:21:41;6.73;;;4.13;;
305;SDS011;137;48.578;9.180;2024-01-15T13:24:08;7.07;;;4.53;;
305;SDS011;137;48.578;9.180;2024-01-15T13:26:37;10.43;;;4.80;;
305;SDS011;137;48.578;9.180;2024-01-15T13:29:04;6.40;;;3.63;;
305;SDS011;137;48.578;9.180;2024-01-15T13:31:31;7.50;;;4.90;;
305;SDS011;137;48.578;9.180;2024-01-15T13:33:58;7.13;;;4.70;;
305;SDS011;137;48.578;9.180;2024-01-15T13:36:25;4.90;;;4.40;;
305;SDS011;137;48.578;9.180;2024-01-15T13:38:52;6.67;;;5.00;;
305;SDS011;137;48.578;9.180;2024-01-15T13:41:19;4.00;;;3.60;;
305;SDS011;137;48.578;9.180;2024-01-15T13:43:54;4.87;;;4.30;;
305;SDS011;137;48.578;9.180;2024-01-15T13:46:23;6.60;;;4.23;;
305;SDS011;137;48.578;9.180;2024-01-15T13:48:51;6.93;;;5.70;;
305;SDS011;137;48.578;9.180;2024-01-15T13:51:18;6.63;;;3.97;;
305;SDS011;137;48.578;9.180;2024-01-15T13:53:45;6.60;;;5.23;;
305;SDS011;137;48.578;9.180;2024-01-15T13:56:11;10.13;;;5.17;;
305;SDS011;137;48.578;9.180;2024-01-15T13:58:38;6.73;;;4.53;;
305;SDS011;137;48.578;9.180;2024-01-15T14:01:06;12.50;;;6.03;;
305;SDS011;137;48.578;9.180;2024-01-15T14:03:33;7.40;;;5.50;;
305;SDS011;137;48.578;9.180;2024-01-15T14:05:59;11.73;;;4.93;;
305;SDS011;137;48.578;9.180;2024-01-15T14:08:28;7.00;;;4.67;;
305;SDS011;137;48.578;9.180;2024-01-15T14:10:54;5.40;;;3.87;;
305;SDS011;137;48.578;9.180;2024-01-15T14:13:22;5.50;;;4.53;;
305;SDS011;137;48.578;9.180;2024-01-15T14:15:49;8.77;;;5.57;;
305;SDS011;137;48.578;9.180;2024-01-15T14:18:17;6.17;;;4.53;;
305;SDS011;137;48.578;9.180;2024-01-15T14:20:44;8.07;;;4.60;;
305;SDS011;137;48.578;9.180;2024-01-15T14:23:11;7.37;;;3.70;;
305;SDS011;137;48.578;9.180;2024-01-15T14:25:38;7.23;;;3.87;;
305;SDS011;137;48.578;9.180;2024-01-15T14:28:05;7.37;;;4.00;;
305;SDS011;137;48.578;9.180;2024-01-15T14:30:32;5.87;;;4.10;;
305;SDS011;137;48.578;9.180;2024-01-15T14:32:59;6.40;;;4.87;;
305;SDS011;137;48.578;9.180;2024-01-15T14:35:27;6.57;;;5.30;;
305;SDS011;137;48.578;9.180;2024-01-15T14:37:54;6.10;;;4.30;;
305;SDS011;137;48.578;9.180;2024-01-15T14:40:22;6.50;;;4.47;;
305;SDS011;137;48.578;9.180;2024-01-15T14:42:49;7.90;;;4.53;;
305;SDS011;137;48.578;9.180;2024-01-15T14:45:16;6.83;;;4.40;;
305;SDS011;137;48.578;9.180;2024-01-15T14:47:43;7.70;;;4.67;;
305;SDS011;137;48.578;9.180;2024-01-15T14:50:10;5.70;;;3.73;;
305;SDS011;137;48.578;9.180;2024-01-15T14:52:38;7.23;;;3.77;;
305;SDS011;137;48.578;9.180;2024-01-15T14:55:07;5.03;;;3.90;;
305;SDS011;137;48.578;9.180;2024-01-15T14:57:34;7.53;;;4.23;;
305;SDS011;137;48.578;9.180;2024-01-15T15:00:02;6.93;;;4.77;;
305;SDS011;137;48.578;9.180;2024-01-15T15:02:32;5.53;;;4.17;;
305;SDS011;137;48.578;9.180;2024-01-15T15:04:59;4.23;;;3.17;;
305;SDS011;137;48.578;9.180;2024-01-15T15:07:26;3.40;;;3.03;;
305;SDS011;137;48.578;9.180;2024-01-15T15:09:54;3.70;;;3.07;;
305;SDS011;137;48.578;9.180;2024-01-15T15:12:21;4.13;;;2.80;;
305;SDS011;137;48.578;9.180;2024-01-15T15:14:48;3.33;;;2.50;;
305;SDS011;137;48.578;9.180;2024-01-15T15:17:14;4.83;;;2.60;;
305;SDS011;137;48.578;9.180;2024-01-15T15:19:41;3.73;;;2.40;;
305;SDS011;137;48.578;9.180;2024-01-15T15:22:08;2.20;;;1.93;;
305;SDS011;137;48.578;9.180;2024-01-15T15:24:36;6.67;;;2.03;;
305;SDS011;137;48.578;9.180;2024-01-15T15:27:05;2.77;;;2.00;;
305;SDS011;137;48.578;9.180;2024-01-15T15:29:32;3.23;;;2.07;;
305;SDS011;137;48.578;9.180;2024-01-15T15:32:00;2.50;;;1.63;;
305;SDS011;137;48.578;9.180;2024-01-15T15:34:26;3.10;;;1.93;;
305;SDS011;137;48.578;9.180;2024-01-15T15:36:53;1.77;;;1.43;;
305;SDS011;137;48.578;9.180;2024-01-15T15:39:20;2.20;;;1.60;;
305;SDS011;137;48.578;9.180;2024-01-15T15:41:47;2.30;;;2.00;;
305;SDS011;137;48.578;9.180;2024-01-15T15:44:15;3.37;;;1.80;;
305;SDS011;137;48.578;9.180;2024-01-15T15:46:42;3.10;;;2.00;;
305;SDS011;137;48.578;9.180;2024-01-15T15:49:09;2.40;;;2.10;;